Time;durP1;ratioP1;P1;durP2;ratioP2;P2;SDS_P1;SDS_P2;PMS_P1;PMS_P2;Temp;Humidity;BMP_temperature;BMP_pressure;BME280_temperature;BME280_humidity;BME280_pressure;Samples;Min_cycle;Max_cycle;Signal;HPM_P1;HPM_P2
2022/03/06 00:01:17;;;;;;;25.53;12.50;;;;;2.00;96529.00;;;;8352195;28;20218;-74
2022/03/06 00:05:22;;;;;;;31.67;13.20;;;;;1.90;96529.00;;;;8351425;28;20241;-72
2022/03/06 00:09:25;;;;;;;32.97;14.33;;;;;1.80;96528.00;;;;8352384;28;20226;-73
2022/03/06 00:13:28;;;;;;;32.73;13.30;;;;;1.70;96519.00;;;;8351794;28;20632;-73
2022/03/06 00:17:31;;;;;;;29.60;13.53;;;;;1.50;96516.00;;;;8351834;28;20292;-73
2022/03/06 00:21:36;;;;;;;28.70;12.77;;;;;1.40;96512.00;;;;8351590;28;20221;-73
2022/03/06 00:25:40;;;;;;;29.63;12.27;;;;;1.20;96507.00;;;;8354880;28;20732;-73
2022/03/06 00:29:43;;;;;;;38.33;13.00;;;;;1.00;96513.00;;;;8355126;28;20732;-74
2022/03/06 00:33:47;;;;;;;30.40;11.43;;;;;0.70;96507.00;;;;8351581;28;20300;-73
2022/03/06 00:37:52;;;;;;;29.30;12.27;;;;;0.60;96507.00;;;;8351409;28;20312;-73
2022/03/06 00:41:54;;;;;;;23.77;11.43;;;;;0.50;96518.00;;;;8350992;28;20318;-73
2022/03/06 00:45:58;;;;;;;30.63;12.50;;;;;0.20;96518.00;;;;8350610;28;20656;-74
2022/03/06 00:50:02;;;;;;;24.70;11.73;;;;;-0.10;96518.00;;;;8345929;28;20243;-74
2022/03/06 00:54:06;;;;;;;26.33;12.00;;;;;-0.10;96510.00;;;;8350168;28;20224;-73
2022/03/06 00:58:09;;;;;;;28.37;11.93;;;;;-0.10;96510.00;;;;8356623;28;20278;-73
2022/03/06 01:02:12;;;;;;;30.60;11.27;;;;;-0.10;96509.00;;;;8350342;28;20840;-73
2022/03/06 01:06:16;;;;;;;26.60;11.90;;;;;-0.10;96512.00;;;;8348659;28;20312;-73
2022/03/06 01:10:20;;;;;;;23.37;11.03;;;;;-0.10;96509.00;;;;8349616;28;20229;-73
2022/03/06 01:14:24;;;;;;;29.57;11.80;;;;;-0.20;96502.00;;;;8343349;28;20267;-73
2022/03/06 01:18:27;;;;;;;21.73;10.37;;;;;-0.30;96502.00;;;;8350246;28;20265;-74
2022/03/06 01:22:30;;;;;;;22.97;11.33;;;;;-0.30;96512.00;;;;8350102;28;20229;-72
2022/03/06 01:26:34;;;;;;;29.70;11.97;;;;;-0.40;96510.00;;;;8364962;28;20266;-74
2022/03/06 01:30:37;;;;;;;25.47;11.83;;;;;-0.40;96496.00;;;;8353833;28;20228;-74
2022/03/06 01:34:40;;;;;;;22.77;10.67;;;;;-0.40;96504.00;;;;8351052;28;20229;-74
2022/03/06 01:38:43;;;;;;;27.57;11.67;;;;;-0.50;96510.00;;;;8349583;28;20236;-73
2022/03/06 01:42:50;;;;;;;27.63;12.17;;;;;-0.50;96510.00;;;;8348990;28;20632;-75
2022/03/06 01:46:53;;;;;;;30.43;12.10;;;;;-0.40;96504.00;;;;8350034;28;20674;-73
2022/03/06 01:50:56;;;;;;;30.00;12.13;;;;;-0.30;96503.00;;;;8348069;28;20220;-73
2022/03/06 01:54:59;;;;;;;27.63;12.60;;;;;-0.20;96503.00;;;;8351107;28;20216;-74
2022/03/06 01:59:04;;;;;;;27.23;12.20;;;;;-0.10;96507.00;;;;8352426;28;20319;-75
2022/03/06 02:03:08;;;;;;;26.07;12.30;;;;;-0.20;96505.00;;;;8348371;28;20244;-74
2022/03/06 02:07:11;;;;;;;30.03;12.57;;;;;-0.20;96512.00;;;;8345058;28;20311;-74
2022/03/06 02:11:15;;;;;;;32.50;11.60;;;;;-0.20;96512.00;;;;8349311;28;20217;-75
2022/03/06 02:15:20;;;;;;;23.70;10.53;;;;;-0.40;96514.00;;;;8347842;28;20280;-74
2022/03/06 02:19:22;;;;;;;23.60;10.67;;;;;-0.60;96517.00;;;;8348501;28;20244;-74
2022/03/06 02:23:27;;;;;;;33.57;12.47;;;;;-0.70;96524.00;;;;8348398;28;20233;-74
2022/03/06 02:27:30;;;;;;;29.10;12.30;;;;;-0.80;96518.00;;;;8369005;28;20668;-73
2022/03/06 02:31:34;;;;;;;30.47;12.10;;;;;-0.80;96521.00;;;;8348591;28;20278;-71
2022/03/06 02:35:37;;;;;;;26.10;11.27;;;;;-0.80;96519.00;;;;8348781;28;20243;-71
2022/03/06 02:39:43;;;;;;;26.50;11.80;;;;;-0.80;96524.00;;;;8348418;28;20238;-71
2022/03/06 02:43:46;;;;;;;36.17;12.73;;;;;-0.90;96516.00;;;;8347043;28;20286;-70
2022/03/06 02:47:50;;;;;;;30.50;12.77;;;;;-0.80;96530.00;;;;8341044;28;20291;-70
2022/03/06 02:51:53;;;;;;;30.00;11.93;;;;;-0.90;96523.00;;;;8335137;28;20263;-71
2022/03/06 02:55:58;;;;;;;28.20;12.60;;;;;-0.80;96525.00;;;;8347279;28;20286;-70
2022/03/06 03:00:01;;;;;;;26.43;12.17;;;;;-0.80;96522.00;;;;8348351;28;20233;-70
2022/03/06 03:04:05;;;;;;;27.37;11.57;;;;;-0.70;96524.00;;;;8410031;22;20304;-71
2022/03/06 03:08:08;;;;;;;27.57;11.80;;;;;-0.70;96524.00;;;;8408861;28;20223;-70
2022/03/06 03:12:13;;;;;;;26.87;11.20;;;;;-0.60;96528.00;;;;8414803;28;20273;-70
2022/03/06 03:16:15;;;;;;;27.50;11.73;;;;;-0.60;96526.00;;;;8412027;28;20731;-71
2022/03/06 03:20:18;;;;;;;29.03;13.27;;;;;-0.50;96526.00;;;;8409628;28;20326;-70
2022/03/06 03:24:21;;;;;;;28.33;12.43;;;;;-0.50;96530.00;;;;8414653;28;20779;-70
2022/03/06 03:28:26;;;;;;;27.50;12.10;;;;;-0.50;96534.00;;;;8414944;28;20227;-72
2022/03/06 03:32:29;;;;;;;27.03;12.20;;;;;-0.50;96531.00;;;;8417865;28;20639;-69
2022/03/06 03:36:31;;;;;;;28.60;12.00;;;;;-0.50;96536.00;;;;8420286;28;20227;-70
2022/03/06 03:40:34;;;;;;;32.17;12.40;;;;;-0.50;96538.00;;;;8420514;28;20291;-70
2022/03/06 03:44:38;;;;;;;25.23;11.90;;;;;-0.60;96533.00;;;;8414279;28;20214;-70
2022/03/06 03:48:42;;;;;;;25.00;12.17;;;;;-0.60;96541.00;;;;8419473;28;20889;-73
2022/03/06 03:52:45;;;;;;;31.03;12.33;;;;;-0.60;96540.00;;;;8419599;28;20276;-73
2022/03/06 03:56:47;;;;;;;29.73;12.00;;;;;-0.70;96528.00;;;;8420708;28;20311;-71
2022/03/06 04:00:52;;;;;;;25.27;12.07;;;;;-0.70;96535.00;;;;8419481;28;20650;-71
2022/03/06 04:04:55;;;;;;;26.17;12.13;;;;;-0.70;96528.00;;;;8416866;28;20226;-71
2022/03/06 04:08:58;;;;;;;30.47;12.50;;;;;-0.70;96532.00;;;;8416009;28;20230;-73
2022/03/06 04:13:01;;;;;;;25.10;11.03;;;;;-0.80;96531.00;;;;8415564;28;20656;-71
2022/03/06 04:17:06;;;;;;;24.77;11.83;;;;;-0.70;96532.00;;;;8418952;28;20232;-73
2022/03/06 04:21:08;;;;;;;29.67;12.17;;;;;-0.80;96534.00;;;;8418770;28;20243;-74
2022/03/06 04:25:11;;;;;;;25.00;11.53;;;;;-0.80;96538.00;;;;8418442;28;20292;-74
2022/03/06 04:29:14;;;;;;;26.03;12.67;;;;;-0.90;96540.00;;;;8418560;28;20235;-71
2022/03/06 04:33:18;;;;;;;29.43;11.23;;;;;-1.00;96553.00;;;;8417200;28;20235;-73
2022/03/06 04:37:21;;;;;;;27.97;12.47;;;;;-1.00;96548.00;;;;8419065;28;20296;-75
2022/03/06 04:41:24;;;;;;;26.97;11.97;;;;;-1.10;96552.00;;;;8418038;28;20228;-71
2022/03/06 04:45:27;;;;;;;26.30;11.73;;;;;-1.10;96550.00;;;;8416974;28;20546;-73
2022/03/06 04:49:32;;;;;;;30.40;12.13;;;;;-1.10;96552.00;;;;8414995;28;20236;-74
2022/03/06 04:53:36;;;;;;;27.07;8.63;;;;;-1.10;96558.00;;;;8419148;28;20346;-72
2022/03/06 04:57:39;;;;;;;30.23;12.07;;;;;-1.10;96558.00;;;;8417269;28;20280;-72
2022/03/06 05:01:42;;;;;;;25.80;12.40;;;;;-1.10;96559.00;;;;8416819;28;20268;-73
2022/03/06 05:05:47;;;;;;;25.77;11.03;;;;;-1.10;96552.00;;;;8418839;28;20241;-73
2022/03/06 05:09:50;;;;;;;29.83;12.87;;;;;-1.10;96557.00;;;;8415872;28;20285;-73
2022/03/06 05:13:53;;;;;;;30.33;13.07;;;;;-1.00;96564.00;;;;8413776;27;20219;-72
2022/03/06 05:17:56;;;;;;;25.20;11.83;;;;;-1.00;96561.00;;;;8417534;28;20227;-73
2022/03/06 05:22:01;;;;;;;22.47;9.33;;;;;-1.00;96562.00;;;;8416233;27;20324;-73
2022/03/06 05:26:04;;;;;;;23.20;9.80;;;;;-1.00;96560.00;;;;8417059;28;20751;-73
2022/03/06 05:30:09;;;;;;;29.23;10.73;;;;;-1.00;96561.00;;;;8415992;28;20227;-72
2022/03/06 05:34:12;;;;;;;20.87;10.27;;;;;-1.10;96562.00;;;;8416036;28;20231;-72
2022/03/06 05:38:16;;;;;;;27.57;10.80;;;;;-1.10;96562.00;;;;8416696;28;21100;-72
2022/03/06 05:42:20;;;;;;;30.50;12.83;;;;;-1.10;96569.00;;;;8416572;28;20223;-72
2022/03/06 05:46:22;;;;;;;27.30;12.37;;;;;-1.10;96570.00;;;;8410741;28;20239;-72
2022/03/06 05:50:26;;;;;;;28.83;11.23;;;;;-1.10;96565.00;;;;8415630;28;20741;-72
2022/03/06 05:54:30;;;;;;;27.67;13.27;;;;;-1.10;96569.00;;;;8415630;28;20288;-71
2022/03/06 05:58:33;;;;;;;33.80;13.10;;;;;-1.10;96572.00;;;;8416269;28;20227;-71
2022/03/06 06:02:36;;;;;;;26.47;11.53;;;;;-1.10;96570.00;;;;8414913;28;21190;-71
2022/03/06 06:06:40;;;;;;;25.67;12.10;;;;;-1.10;96578.00;;;;8414875;28;20314;-72
2022/03/06 06:10:45;;;;;;;29.13;13.13;;;;;-1.10;96575.00;;;;8415682;28;20223;-71
2022/03/06 06:14:48;;;;;;;30.63;12.00;;;;;-1.10;96572.00;;;;8415714;28;20753;-72
2022/03/06 06:18:51;;;;;;;27.47;12.13;;;;;-1.10;96577.00;;;;8412704;28;20215;-71
2022/03/06 06:22:54;;;;;;;28.57;12.33;;;;;-1.00;96585.00;;;;8410913;28;20249;-71
2022/03/06 06:26:59;;;;;;;25.07;12.07;;;;;-1.00;96586.00;;;;8414547;28;20264;-71
2022/03/06 06:31:02;;;;;;;25.67;12.07;;;;;-0.90;96599.00;;;;8414618;28;20436;-71
2022/03/06 06:35:05;;;;;;;27.50;12.50;;;;;-0.80;96589.00;;;;8414301;28;20683;-73
2022/03/06 06:39:09;;;;;;;31.77;13.20;;;;;-0.80;96602.00;;;;8415759;28;20675;-72
2022/03/06 06:43:13;;;;;;;21.20;8.70;;;;;-0.60;96603.00;;;;8413674;28;20659;-71
2022/03/06 06:47:16;;;;;;;27.13;11.43;;;;;-0.50;96604.00;;;;8410130;28;20284;-68
2022/03/06 06:51:19;;;;;;;33.37;13.90;;;;;-0.40;96607.00;;;;8412616;28;20264;-69
2022/03/06 06:55:22;;;;;;;23.97;10.90;;;;;-0.30;96606.00;;;;8414162;27;20231;-69
2022/03/06 06:59:27;;;;;;;29.07;12.30;;;;;-0.10;96609.00;;;;8414227;27;20264;-69
2022/03/06 07:03:30;;;;;;;38.70;13.53;;;;;-0.10;96610.00;;;;8412053;28;20219;-70
2022/03/06 07:07:33;;;;;;;33.43;13.13;;;;;0.10;96605.00;;;;8413262;28;20238;-69
2022/03/06 07:11:36;;;;;;;26.70;11.17;;;;;0.10;96608.00;;;;8411123;28;20845;-70
2022/03/06 07:15:40;;;;;;;29.70;13.13;;;;;0.30;96617.00;;;;8414934;27;20740;-70
2022/03/06 07:19:44;;;;;;;22.90;10.53;;;;;0.40;96615.00;;;;8417922;27;20234;-70
2022/03/06 07:23:47;;;;;;;23.10;11.13;;;;;0.50;96610.00;;;;8414791;28;20226;-70
2022/03/06 07:27:50;;;;;;;22.07;10.17;;;;;0.50;96617.00;;;;8405550;28;20219;-69
2022/03/06 07:31:55;;;;;;;26.33;12.40;;;;;0.60;96612.00;;;;8411728;27;20240;-70
2022/03/06 07:35:58;;;;;;;29.87;12.37;;;;;0.70;96623.00;;;;8417267;27;20219;-69
2022/03/06 07:40:01;;;;;;;33.53;13.43;;;;;0.90;96621.00;;;;8416140;27;20231;-69
2022/03/06 07:44:04;;;;;;;27.10;11.27;;;;;1.00;96629.00;;;;8413726;27;20223;-69
2022/03/06 07:48:09;;;;;;;26.20;11.10;;;;;1.10;96619.00;;;;8410454;28;20261;-71
2022/03/06 07:52:12;;;;;;;20.63;10.20;;;;;1.20;96620.00;;;;8413257;28;20321;-71
2022/03/06 07:56:15;;;;;;;28.23;11.93;;;;;1.20;96623.00;;;;8411419;28;20272;-69
2022/03/06 08:00:18;;;;;;;32.10;12.40;;;;;1.30;96621.00;;;;8411903;28;20227;-70
2022/03/06 08:04:22;;;;;;;26.90;10.60;;;;;1.40;96635.00;;;;8389040;28;20593;-70
2022/03/06 08:08:25;;;;;;;25.70;11.33;;;;;1.40;96643.00;;;;8412798;28;20328;-71
2022/03/06 08:12:28;;;;;;;27.60;13.73;;;;;1.30;96635.00;;;;8409826;28;20918;-72
2022/03/06 08:16:31;;;;;;;24.77;11.70;;;;;1.60;96641.00;;;;8400960;28;20235;-73
2022/03/06 08:20:36;;;;;;;21.00;10.23;;;;;1.60;96638.00;;;;8418380;28;20243;-72
2022/03/06 08:24:39;;;;;;;23.43;10.87;;;;;1.70;96634.00;;;;8416165;28;20307;-72
2022/03/06 08:28:41;;;;;;;20.17;9.67;;;;;1.80;96631.00;;;;8417486;28;20825;-72
2022/03/06 08:32:45;;;;;;;24.50;11.47;;;;;1.90;96637.00;;;;8410877;28;20244;-72
2022/03/06 08:36:49;;;;;;;26.67;12.67;;;;;2.10;96627.00;;;;8411240;28;20296;-72
2022/03/06 08:40:52;;;;;;;26.63;11.73;;;;;2.20;96636.00;;;;8418902;28;20231;-73
2022/03/06 08:44:55;;;;;;;23.90;10.17;;;;;2.50;96640.00;;;;8417278;28;20296;-75
2022/03/06 08:48:58;;;;;;;22.73;10.17;;;;;2.80;96639.00;;;;8417326;28;20362;-75
2022/03/06 08:53:02;;;;;;;20.23;10.27;;;;;3.00;96628.00;;;;8414295;28;20227;-74
2022/03/06 08:57:06;;;;;;;23.90;11.13;;;;;3.40;96630.00;;;;8422180;28;20705;-75
2022/03/06 09:01:09;;;;;;;22.77;10.30;;;;;3.80;96646.00;;;;8413886;27;20238;-74
2022/03/06 09:05:13;;;;;;;24.83;11.43;;;;;3.90;96638.00;;;;8418112;28;20248;-73
2022/03/06 09:09:18;;;;;;;22.20;10.83;;;;;4.00;96638.00;;;;8417458;27;20221;-74
2022/03/06 09:13:21;;;;;;;21.47;10.77;;;;;4.10;96640.00;;;;8417504;28;20250;-72
2022/03/06 09:17:24;;;;;;;22.10;9.43;;;;;4.40;96640.00;;;;8416991;28;20233;-73
2022/03/06 09:21:27;;;;;;;22.40;10.13;;;;;4.60;96637.00;;;;8411157;28;20242;-73
2022/03/06 09:25:32;;;;;;;20.53;9.67;;;;;4.60;96633.00;;;;8417567;28;20319;-74
2022/03/06 09:29:36;;;;;;;25.00;9.87;;;;;4.40;96633.00;;;;8412651;28;20229;-74
2022/03/06 09:33:39;;;;;;;20.23;9.67;;;;;4.30;96637.00;;;;8410172;28;20215;-76
2022/03/06 09:37:43;;;;;;;17.80;9.50;;;;;4.20;96640.00;;;;8397368;28;20280;-84
2022/03/06 09:41:50;;;;;;;25.05;10.93;;;;;3.90;96636.00;;;;8382487;27;20952;-80
2022/03/06 09:46:04;;;;;;;20.73;9.70;;;;;3.80;96637.00;;;;8399468;27;20697;-76
2022/03/06 09:50:11;;;;;;;21.00;10.07;;;;;3.60;96642.00;;;;8400407;28;20353;-74
2022/03/06 09:54:16;;;;;;;23.83;10.73;;;;;3.60;96628.00;;;;8412350;28;20306;-74
2022/03/06 09:58:20;;;;;;;20.50;9.80;;;;;3.60;96643.00;;;;8411060;28;20230;-77
2022/03/06 10:02:23;;;;;;;16.17;9.47;;;;;3.60;96633.00;;;;8407610;28;20484;-72
2022/03/06 10:06:27;;;;;;;20.73;9.97;;;;;3.80;96634.00;;;;8414088;28;20316;-74
2022/03/06 10:10:37;;;;;;;19.80;8.67;;;;;4.30;96642.00;;;;8414795;28;20233;-76
2022/03/06 10:14:44;;;;;;;19.80;9.07;;;;;4.50;96648.00;;;;8409205;28;20244;-76
2022/03/06 10:18:53;;;;;;;17.37;8.47;;;;;4.80;96636.00;;;;8412862;28;20273;-72
2022/03/06 10:22:57;;;;;;;17.47;8.57;;;;;5.40;96642.00;;;;8415344;27;20241;-73
2022/03/06 10:27:00;;;;;;;17.23;7.50;;;;;5.60;96639.00;;;;8416192;27;20280;-74
2022/03/06 10:31:05;;;;;;;16.57;8.13;;;;;5.80;96638.00;;;;8414045;28;20295;-75
2022/03/06 10:35:09;;;;;;;12.27;7.17;;;;;5.80;96622.00;;;;8412754;28;20223;-72
2022/03/06 10:39:15;;;;;;;12.33;6.80;;;;;5.70;96634.00;;;;8412200;28;20251;-73
2022/03/06 10:43:21;;;;;;;13.80;7.13;;;;;5.50;96635.00;;;;8416844;27;20221;-72
2022/03/06 10:47:25;;;;;;;16.47;6.70;;;;;5.40;96637.00;;;;8414284;28;20233;-72
2022/03/06 10:51:28;;;;;;;16.10;7.50;;;;;5.10;96646.00;;;;8417146;28;20239;-72
2022/03/06 10:55:35;;;;;;;10.87;6.33;;;;;5.00;96636.00;;;;8413215;28;20291;-73
2022/03/06 10:59:42;;;;;;;12.47;7.00;;;;;5.10;96633.00;;;;8411115;28;20752;-75
2022/03/06 11:03:46;;;;;;;9.27;6.00;;;;;5.20;96635.00;;;;8419147;27;20230;-72
2022/03/06 11:07:50;;;;;;;9.70;5.43;;;;;5.20;96633.00;;;;8412297;28;20227;-72
2022/03/06 11:11:52;;;;;;;11.57;6.33;;;;;5.20;96623.00;;;;8416276;27;20228;-74
2022/03/06 11:15:58;;;;;;;13.03;6.00;;;;;5.20;96631.00;;;;8410887;27;20234;-72
2022/03/06 11:20:03;;;;;;;10.63;6.27;;;;;5.20;96622.00;;;;8415680;27;20227;-73
2022/03/06 11:24:11;;;;;;;11.87;6.43;;;;;5.40;96621.00;;;;8408357;27;20230;-72
2022/03/06 11:28:26;;;;;;;16.17;7.63;;;;;5.60;96618.00;;;;8414788;28;20905;-73
2022/03/06 11:32:33;;;;;;;11.77;7.30;;;;;5.70;96607.00;;;;8406887;27;20224;-73
2022/03/06 11:36:45;;;;;;;12.67;6.97;;;;;5.70;96609.00;;;;8412113;28;20226;-72
2022/03/06 11:40:50;;;;;;;14.00;7.23;;;;;5.70;96607.00;;;;8407019;28;20606;-73
2022/03/06 11:44:52;;;;;;;14.30;7.30;;;;;5.50;96611.00;;;;8420485;27;20223;-74
2022/03/06 11:49:07;;;;;;;14.10;7.77;;;;;5.30;96613.00;;;;8409682;27;20232;-74
2022/03/06 11:53:47;;;;;;;10.50;6.90;;;;;5.30;96608.00;;;;8411952;28;20234;-75
2022/03/06 11:57:51;;;;;;;12.33;6.67;;;;;5.10;96609.00;;;;8397041;28;20224;-72
2022/03/06 12:01:56;;;;;;;13.90;7.70;;;;;5.20;96596.00;;;;8415641;28;20228;-72
2022/03/06 12:06:00;;;;;;;11.13;7.20;;;;;5.20;96602.00;;;;8420378;28;20224;-73
2022/03/06 12:10:09;;;;;;;10.20;7.23;;;;;5.40;96599.00;;;;8418537;28;20223;-72
2022/03/06 12:14:12;;;;;;;14.07;7.67;;;;;5.40;96597.00;;;;8417425;28;20219;-73
2022/03/06 12:18:17;;;;;;;11.90;7.10;;;;;5.60;96592.00;;;;8422018;27;20228;-73
2022/03/06 12:22:22;;;;;;;10.33;6.10;;;;;5.70;96583.00;;;;8418145;28;20315;-74
2022/03/06 12:26:44;;;;;;;13.37;7.03;;;;;5.70;96584.00;;;;8417963;27;20249;-73
2022/03/06 12:30:49;;;;;;;13.00;6.77;;;;;6.00;96576.00;;;;8420257;28;20236;-73
2022/03/06 12:34:56;;;;;;;11.03;6.57;;;;;6.10;96577.00;;;;8416367;28;20234;-73
2022/03/06 12:39:02;;;;;;;12.77;6.60;;;;;6.10;96578.00;;;;8418786;28;20231;-73
2022/03/06 12:43:08;;;;;;;9.53;6.50;;;;;6.10;96574.00;;;;8420008;27;20235;-74
2022/03/06 12:47:11;;;;;;;9.37;6.63;;;;;6.00;96577.00;;;;8421601;27;20221;-73
2022/03/06 12:51:27;;;;;;;10.47;6.70;;;;;5.90;96573.00;;;;8411748;28;20237;-72
2022/03/06 12:55:30;;;;;;;14.10;7.47;;;;;5.70;96578.00;;;;8414346;27;20246;-73
2022/03/06 12:59:39;;;;;;;12.80;7.43;;;;;5.60;96575.00;;;;8416226;28;20230;-73
2022/03/06 13:03:50;;;;;;;8.20;6.00;;;;;5.50;96582.00;;;;8426323;27;20284;-74
2022/03/06 13:07:54;;;;;;;10.50;6.13;;;;;5.40;96574.00;;;;8416902;27;20284;-74
2022/03/06 13:11:59;;;;;;;10.63;6.23;;;;;5.30;96590.00;;;;8416410;28;20234;-72
2022/03/06 13:16:04;;;;;;;14.87;7.40;;;;;5.20;96581.00;;;;8419472;28;20268;-74
2022/03/06 13:20:08;;;;;;;13.83;6.70;;;;;5.10;96583.00;;;;8428215;27;20739;-74
2022/03/06 13:24:12;;;;;;;9.47;6.53;;;;;5.10;96577.00;;;;8425255;27;20729;-75
2022/03/06 13:28:16;;;;;;;11.87;7.47;;;;;5.00;96584.00;;;;8422404;27;20228;-74
2022/03/06 13:32:28;;;;;;;14.20;8.37;;;;;4.80;96578.00;;;;8417783;28;20233;-74
2022/03/06 13:36:31;;;;;;;15.10;7.50;;;;;4.90;96570.00;;;;8424822;27;20263;-74
2022/03/06 13:40:37;;;;;;;11.50;7.00;;;;;4.90;96578.00;;;;8416510;27;20225;-75
2022/03/06 13:44:57;;;;;;;8.97;6.37;;;;;4.80;96565.00;;;;8420443;27;20287;-73
2022/03/06 13:49:14;;;;;;;8.60;6.30;;;;;4.90;96575.00;;;;8407654;28;20258;-76
2022/03/06 13:53:17;;;;;;;9.50;7.13;;;;;4.80;96576.00;;;;8409835;28;20225;-74
2022/03/06 13:57:20;;;;;;;10.93;6.63;;;;;4.90;96575.00;;;;8420853;27;20260;-74
2022/03/06 14:01:25;;;;;;;17.90;7.77;;;;;4.80;96567.00;;;;8420880;27;20232;-74
2022/03/06 14:05:32;;;;;;;16.20;8.00;;;;;4.80;96564.00;;;;8418856;27;20319;-74
2022/03/06 14:09:36;;;;;;;13.50;6.97;;;;;4.80;96558.00;;;;8411081;28;20800;-76
2022/03/06 14:13:40;;;;;;;13.17;7.47;;;;;5.00;96564.00;;;;8420059;27;20232;-75
2022/03/06 14:17:52;;;;;;;11.50;6.53;;;;;5.00;96566.00;;;;8414735;27;20225;-74
2022/03/06 14:21:57;;;;;;;8.83;6.40;;;;;5.00;96566.00;;;;8415253;28;20598;-73
2022/03/06 14:26:00;;;;;;;10.17;6.77;;;;;5.00;96561.00;;;;8413718;28;20237;-73
2022/03/06 14:30:03;;;;;;;13.17;6.80;;;;;5.00;96558.00;;;;8414829;27;20271;-74
2022/03/06 14:34:08;;;;;;;8.80;5.50;;;;;4.90;96560.00;;;;8413539;27;20261;-74
2022/03/06 14:38:12;;;;;;;12.80;6.73;;;;;4.80;96554.00;;;;8407880;28;20284;-74
2022/03/06 14:42:15;;;;;;;9.83;5.67;;;;;4.80;96558.00;;;;8419524;27;20225;-75
2022/03/06 14:46:19;;;;;;;10.43;6.50;;;;;4.80;96559.00;;;;8422905;27;20230;-74
2022/03/06 14:50:23;;;;;;;10.63;6.37;;;;;4.60;96561.00;;;;8412662;27;20225;-74
2022/03/06 14:54:27;;;;;;;14.00;7.50;;;;;4.50;96572.00;;;;8417008;27;20230;-74
2022/03/06 14:58:31;;;;;;;8.23;6.20;;;;;4.40;96570.00;;;;8415503;27;20223;-75
2022/03/06 15:02:34;;;;;;;9.57;5.80;;;;;4.40;96569.00;;;;8425430;28;20274;-75
2022/03/06 15:06:37;;;;;;;14.87;8.53;;;;;4.30;96563.00;;;;8414006;28;20231;-74
2022/03/06 15:10:42;;;;;;;8.83;6.10;;;;;4.10;96563.00;;;;8415114;28;20232;-74
2022/03/06 15:14:45;;;;;;;11.27;6.40;;;;;4.10;96572.00;;;;8412182;28;20271;-75
2022/03/06 15:18:48;;;;;;;11.07;6.30;;;;;4.10;96566.00;;;;8419694;27;20219;-75
2022/03/06 15:22:51;;;;;;;9.03;5.70;;;;;4.10;96570.00;;;;8414941;27;20232;-75
2022/03/06 15:26:55;;;;;;;9.50;6.40;;;;;4.00;96560.00;;;;8413424;28;20224;-74
2022/03/06 15:30:59;;;;;;;8.90;6.33;;;;;4.00;96566.00;;;;8416916;27;20225;-74
2022/03/06 15:35:02;;;;;;;9.50;6.47;;;;;3.90;96568.00;;;;8411916;27;20790;-76
2022/03/06 15:39:05;;;;;;;8.23;6.10;;;;;3.90;96569.00;;;;8412763;28;20879;-75
2022/03/06 15:43:10;;;;;;;9.60;6.53;;;;;3.80;96564.00;;;;8413934;27;20765;-75
2022/03/06 15:47:13;;;;;;;11.53;6.60;;;;;3.80;96580.00;;;;8416006;27;20227;-74
2022/03/06 15:51:16;;;;;;;11.40;6.83;;;;;3.80;96570.00;;;;8414381;27;20234;-76
2022/03/06 15:55:19;;;;;;;9.33;6.30;;;;;3.90;96578.00;;;;8418636;27;20219;-75
2022/03/06 15:59:23;;;;;;;17.10;7.40;;;;;3.90;96574.00;;;;8425187;27;20311;-76
2022/03/06 16:03:26;;;;;;;9.27;5.97;;;;;3.90;96566.00;;;;8419533;28;20240;-76
2022/03/06 16:07:30;;;;;;;9.97;6.03;;;;;3.80;96579.00;;;;8412037;27;20818;-75
2022/03/06 16:11:33;;;;;;;11.27;6.37;;;;;3.70;96583.00;;;;8412708;27;20218;-75
2022/03/06 16:15:37;;;;;;;13.97;6.57;;;;;3.60;96573.00;;;;8410878;28;20283;-74
2022/03/06 16:19:40;;;;;;;10.83;6.63;;;;;3.50;96578.00;;;;8413882;27;20306;-75
2022/03/06 16:23:43;;;;;;;11.57;6.70;;;;;3.50;96574.00;;;;8411364;28;20588;-75
2022/03/06 16:27:46;;;;;;;12.13;6.63;;;;;3.40;96576.00;;;;8411642;28;20780;-75
2022/03/06 16:31:52;;;;;;;12.97;6.80;;;;;3.40;96575.00;;;;8415685;27;20217;-74
2022/03/06 16:35:55;;;;;;;11.17;7.03;;;;;3.20;96576.00;;;;8413951;27;20224;-76
2022/03/06 16:39:59;;;;;;;10.43;6.57;;;;;3.10;96574.00;;;;8423201;27;20285;-76
2022/03/06 16:44:02;;;;;;;8.10;6.43;;;;;3.10;96584.00;;;;8424211;27;20302;-76
2022/03/06 16:48:07;;;;;;;11.33;6.47;;;;;3.00;96578.00;;;;8413561;28;20304;-75
2022/03/06 16:52:10;;;;;;;11.93;7.63;;;;;3.00;96582.00;;;;8416682;27;20294;-74
2022/03/06 16:56:14;;;;;;;11.67;7.03;;;;;2.90;96579.00;;;;8416618;27;20865;-72
2022/03/06 17:00:17;;;;;;;15.23;7.33;;;;;2.80;96582.00;;;;8420784;27;20270;-74
2022/03/06 17:04:21;;;;;;;9.87;6.73;;;;;2.80;96580.00;;;;8417501;28;20332;-75
2022/03/06 17:08:24;;;;;;;10.57;6.43;;;;;2.80;96598.00;;;;8422046;27;20923;-73
2022/03/06 17:12:27;;;;;;;11.13;6.17;;;;;2.70;96595.00;;;;8419553;27;20229;-76
2022/03/06 17:16:32;;;;;;;11.07;6.57;;;;;2.70;96604.00;;;;8409830;27;20306;-75
2022/03/06 17:20:44;;;;;;;11.67;6.67;;;;;2.50;96601.00;;;;8417884;27;20234;-74
2022/03/06 17:24:47;;;;;;;12.63;7.07;;;;;2.50;96608.00;;;;8413057;27;20236;-76
2022/03/06 17:28:51;;;;;;;12.83;7.83;;;;;2.50;96605.00;;;;8415337;28;20226;-75
2022/03/06 17:32:54;;;;;;;13.37;7.87;;;;;2.60;96610.00;;;;8418704;27;20233;-74
2022/03/06 17:36:58;;;;;;;11.50;7.33;;;;;2.60;96624.00;;;;8418608;27;20227;-75
2022/03/06 17:41:02;;;;;;;12.07;8.03;;;;;2.50;96631.00;;;;8417339;27;20223;-74
2022/03/06 17:45:06;;;;;;;14.30;7.57;;;;;2.50;96635.00;;;;8413641;27;20984;-74
2022/03/06 17:49:09;;;;;;;12.33;7.17;;;;;2.40;96642.00;;;;8415210;27;20284;-74
2022/03/06 17:53:13;;;;;;;14.03;8.20;;;;;2.40;96646.00;;;;8413402;28;20230;-74
2022/03/06 17:57:17;;;;;;;13.47;7.57;;;;;2.30;96642.00;;;;8413685;28;20261;-74
2022/03/06 18:01:19;;;;;;;11.40;7.47;;;;;2.20;96641.00;;;;8414036;27;20629;-75
2022/03/06 18:05:23;;;;;;;12.87;7.90;;;;;2.10;96650.00;;;;8419884;27;20223;-77
2022/03/06 18:09:28;;;;;;;13.03;8.40;;;;;2.10;96652.00;;;;8415267;28;20288;-75
2022/03/06 18:13:32;;;;;;;13.40;8.80;;;;;2.00;96648.00;;;;8408791;27;21105;-74
2022/03/06 18:17:35;;;;;;;13.47;9.30;;;;;2.00;96648.00;;;;8414900;27;20307;-74
2022/03/06 18:21:38;;;;;;;19.10;9.67;;;;;2.00;96658.00;;;;8412359;27;20292;-75
2022/03/06 18:25:43;;;;;;;15.67;9.10;;;;;2.00;96653.00;;;;8415103;28;20239;-74
2022/03/06 18:29:47;;;;;;;18.13;10.10;;;;;2.00;96665.00;;;;8414384;27;20284;-74
2022/03/06 18:33:50;;;;;;;13.73;8.60;;;;;1.90;96666.00;;;;8414509;28;20219;-72
2022/03/06 18:37:53;;;;;;;19.33;10.37;;;;;1.80;96677.00;;;;8408097;27;20223;-75
2022/03/06 18:41:57;;;;;;;15.40;9.17;;;;;1.50;96673.00;;;;8415004;28;20666;-73
2022/03/06 18:46:00;;;;;;;16.83;8.70;;;;;1.40;96681.00;;;;8416171;27;20297;-73
2022/03/06 18:50:04;;;;;;;15.23;9.33;;;;;1.30;96676.00;;;;8411996;27;20254;-75
2022/03/06 18:54:09;;;;;;;22.03;11.53;;;;;1.20;96673.00;;;;8412759;27;20223;-76
2022/03/06 18:58:13;;;;;;;13.80;8.70;;;;;1.10;96664.00;;;;8416861;27;20291;-76
2022/03/06 19:02:16;;;;;;;16.60;9.93;;;;;1.10;96669.00;;;;8412554;27;20227;-75
2022/03/06 19:06:20;;;;;;;14.20;8.50;;;;;1.00;96676.00;;;;8415993;27;20215;-73
2022/03/06 19:10:37;;;;;;;13.93;7.70;;;;;1.10;96671.00;;;;8414893;27;20325;-74
2022/03/06 19:14:41;;;;;;;17.53;9.13;;;;;1.10;96664.00;;;;8413383;27;20292;-74
2022/03/06 19:18:45;;;;;;;13.70;9.17;;;;;1.10;96676.00;;;;8413940;27;20276;-76
2022/03/06 19:22:49;;;;;;;13.93;8.33;;;;;1.00;96679.00;;;;8413193;28;20320;-74
2022/03/06 19:26:52;;;;;;;19.17;10.07;;;;;1.00;96679.00;;;;8418626;27;20234;-74
2022/03/06 19:30:56;;;;;;;16.73;9.10;;;;;1.00;96687.00;;;;8411884;28;20227;-73
2022/03/06 19:35:00;;;;;;;12.37;7.43;;;;;1.00;96684.00;;;;8413208;27;20228;-74
2022/03/06 19:39:03;;;;;;;9.23;6.70;;;;;1.10;96681.00;;;;8415389;27;20236;-75
2022/03/06 19:43:07;;;;;;;19.90;9.27;;;;;1.00;96676.00;;;;8416618;27;20754;-74
2022/03/06 19:47:12;;;;;;;16.20;8.80;;;;;1.10;96674.00;;;;8412886;28;20617;-76
2022/03/06 19:51:15;;;;;;;14.03;8.53;;;;;1.10;96681.00;;;;8411376;27;20277;-76
2022/03/06 19:55:21;;;;;;;13.70;8.33;;;;;1.10;96680.00;;;;8407570;28;20815;-75
2022/03/06 19:59:29;;;;;;;16.63;9.17;;;;;1.10;96680.00;;;;8417306;27;20235;-75
2022/03/06 20:03:34;;;;;;;17.63;9.50;;;;;1.10;96690.00;;;;8413415;28;20230;-76
2022/03/06 20:07:41;;;;;;;10.70;7.43;;;;;1.10;96685.00;;;;8416650;27;20231;-76
2022/03/06 20:11:45;;;;;;;10.43;6.80;;;;;1.10;96685.00;;;;8412209;27;20712;-76